Decoded Metar for LEDA (LLEIDA in SPAIN) (IATA:ILD) | Meteo·Mobile Aviation Weather
aviador You're here:

LEDA Decoded Metar

LLEIDA in SPAIN
Report Time2018-12-17 07:30:00
UTC Time2018-12-17 07:45:59
Flight Rules vfr VFR
Wind260° at 11 kt
W.Decomp.*RWY 31: 7.1 kt HW 8.4 kt LCW
W.Rank260° ranks 2
Current wind is above 260° avg. (9.7)
Visibility9999 m
Phenomena:N/A
Clouds:Few 030 Hf
Expected CloudBase > 800 ft AGL from Temp-Dew spread
CeilingNone
Temp04°C (ISA -9)
Dew Point02°C (87% RH)
AAT-1.6°C
QNH1026 hPa
Density Alt-240 ft
Elevation1,152 ft
Report Wrong Elevation
Raw Report
LEDA 170730Z 26011KT 9999 FEW030 04/02 Q1026=

Extra information for LEDA:More info

Metar Taf Metar & Taf Last 4 Metars F.Rules Stats Wind Profile Meteogram Temp Stats Airport Information Weather charts Add Link Nearby VenuesMetar ALERT Operation Metar Decoded Social comments